»·PEaware :: AAL343 KMSO-KSEA

AAL343 :: KMSO-KSEA

FLIGHT INFORMATION

Flight Status: Arrived
Operator:
American Airlines
More flights by this operator :: More flights under this callsign
Pilot: James W. (12414)
Aircraft: BOEING 737-800
(B738)
More flights by this aircraft type
Origin: KMSO Missoula Intl
United States
Destination: KSEA Seattle-Tacoma Intl
United States
More flights between these airports :: More routes between these airports
Route: DIDLY4 MLP GLASR1
File this flight plan on PilotEdge
Remarks:
Altitude:
(Current/Filed)
340ft
Speed:
(Current/Filed)
500kts
Departed: 16-May-18 04:01 PM
Arrived: 16-May-18 05:00 PM
Distance/Time
Traveled:
336nm/0:59
Distance/Time
To Go:
Arrived

Flight Plot

Page will automatically refresh every two minutes.

Flight plan parsing failed; only flown route is shown


Map Options




Map Legend


Flown Route
Filed Route
Departure Airport
Arrival Airport
Navaid (VOR, NDB)
Fix

Horizontal Profiles

Position Reports

Time Latitude Longitude Heading Altitude Ground
Speed
16-May-18 15:41 46.918594 -114.084745 57 3213ft 0kts
16-May-18 15:42 46.918594 -114.084745 57 3213ft 0kts
16-May-18 15:43 46.918594 -114.084745 57 3213ft 0kts
16-May-18 15:44 46.918594 -114.084745 57 3213ft 0kts
16-May-18 15:45 46.918594 -114.084745 57 3213ft 0kts
16-May-18 15:46 46.918594 -114.084745 57 3213ft 0kts
16-May-18 15:47 46.918594 -114.084745 57 3213ft 0kts
16-May-18 15:48 46.918594 -114.084745 57 3213ft 0kts
16-May-18 15:49 46.918594 -114.084745 57 3213ft 0kts
16-May-18 15:50 46.918594 -114.084745 57 3213ft 0kts
16-May-18 15:51 46.918594 -114.084745 57 3213ft 0kts
16-May-18 15:52 46.918594 -114.084745 57 3213ft 0kts
16-May-18 15:53 46.918313 -114.085298 22 3213ft 2kts
16-May-18 15:54 46.917843 -114.084902 309 3213ft 2kts
16-May-18 15:55 46.917782 -114.084793 310 3213ft 0kts
16-May-18 15:56 46.917782 -114.084793 309 3213ft 0kts
16-May-18 15:57 46.916272 -114.085684 179 3213ft 13kts
16-May-18 15:58 46.912854 -114.082313 130 3213ft 22kts
16-May-18 15:59 46.908875 -114.077181 183 3213ft 0kts
16-May-18 16:00 46.908631 -114.078829 310 3213ft 13kts
16-May-18 16:01 46.929368 -114.114253 312 3713ft 197kts
16-May-18 16:02 46.973769 -114.179657 309 5758ft 246kts
16-May-18 16:03 47.017610 -114.262421 308 7837ft 273kts
16-May-18 16:04 47.065315 -114.351696 313 9832ft 284kts
16-May-18 16:05 47.119114 -114.441394 313 11538ft 326kts
16-May-18 16:06 47.183340 -114.553493 302 13108ft 384kts
16-May-18 16:07 47.222004 -114.699476 292 15600ft 404kts
16-May-18 16:08 47.260226 -114.850921 292 17766ft 424kts
16-May-18 16:09 47.299975 -115.009294 292 20216ft 434kts
16-May-18 16:10 47.340608 -115.172099 292 22543ft 442kts
16-May-18 16:11 47.382309 -115.340241 292 24419ft 457kts
16-May-18 16:12 47.426012 -115.517759 292 26177ft 471kts
16-May-18 16:13 47.460433 -115.663896 284 27791ft 476kts
16-May-18 16:14 47.470109 -115.818693 275 29498ft 476kts
16-May-18 16:15 47.480855 -116.012164 276 31419ft 473kts
16-May-18 16:16 47.491838 -116.204466 275 33134ft 471kts
16-May-18 16:17 47.502726 -116.397238 275 33995ft 481kts
16-May-18 16:18 47.513555 -116.594455 275 33980ft 485kts
16-May-18 16:19 47.523841 -116.786200 275 33978ft 485kts
16-May-18 16:20 47.534130 -116.983774 275 33974ft 486kts
16-May-18 16:21 47.544094 -117.182049 275 33975ft 489kts
16-May-18 16:22 47.553739 -117.380801 275 33976ft 489kts
16-May-18 16:23 47.562850 -117.575230 275 33969ft 489kts
16-May-18 16:24 47.577909 -117.768378 279 33969ft 488kts
16-May-18 16:25 47.596737 -117.965300 279 33975ft 488kts
16-May-18 16:26 47.615255 -118.162922 279 33971ft 488kts
16-May-18 16:27 47.633312 -118.359862 279 33970ft 488kts
16-May-18 16:28 47.651115 -118.558140 279 33906ft 488kts
16-May-18 16:29 47.667568 -118.744908 278 33899ft 488kts
16-May-18 16:30 47.684750 -118.943632 278 33497ft 492kts
16-May-18 16:31 47.701078 -119.136780 278 31367ft 459kts
16-May-18 16:32 47.716244 -119.320125 278 29261ft 448kts
16-May-18 16:33 47.731168 -119.503614 278 27239ft 459kts
16-May-18 16:34 47.745653 -119.685854 277 25227ft 461kts
16-May-18 16:35 47.760058 -119.871062 277 23873ft 436kts
16-May-18 16:36 47.773562 -120.048032 277 23862ft 433kts
16-May-18 16:37 47.786855 -120.226035 277 22866ft 435kts
16-May-18 16:38 47.799333 -120.397024 277 21162ft 414kts
16-May-18 16:39 47.811278 -120.563958 277 19461ft 402kts
16-May-18 16:40 47.820549 -120.695928 276 18082ft 394kts
16-May-18 16:41 47.831515 -120.855029 276 16382ft 383kts
16-May-18 16:42 47.841969 -121.009876 276 14682ft 372kts
16-May-18 16:43 47.851784 -121.158251 277 12988ft 354kts
16-May-18 16:44 47.860967 -121.300010 277 11979ft 339kts
16-May-18 16:45 47.869997 -121.441328 277 11980ft 348kts
16-May-18 16:46 47.878497 -121.577868 277 11957ft 305kts
16-May-18 16:47 47.882511 -121.691832 256 11972ft 282kts
16-May-18 16:48 47.832734 -121.779324 224 11417ft 302kts
16-May-18 16:49 47.769822 -121.863863 224 9372ft 311kts
16-May-18 16:50 47.738197 -121.971152 273 7280ft 280kts
16-May-18 16:51 47.744430 -122.074749 275 5467ft 239kts
16-May-18 16:52 47.751281 -122.170885 275 3973ft 233kts
16-May-18 16:53 47.756926 -122.252020 272 3986ft 185kts
16-May-18 16:54 47.718303 -122.296697 205 3988ft 192kts
16-May-18 16:55 47.665911 -122.309047 182 3987ft 195kts
16-May-18 16:56 47.614024 -122.309754 181 3384ft 178kts
16-May-18 16:57 47.567432 -122.310134 181 2529ft 159kts
16-May-18 16:58 47.524223 -122.310461 181 1664ft 154kts
16-May-18 16:59 47.481756 -122.310875 181 805ft 150kts
16-May-18 17:00 47.448951 -122.310868 168 441ft 38kts
16-May-18 17:01 47.446013 -122.306696 57 441ft 18kts

Navigation Log

Ident Type
Flight plan parsing failed, navigation log unavailable